createdAt,value
2019-02-26T00:04:09.984Z,100302.56
2019-02-26T00:06:42.450Z,100304.95
2019-02-26T00:09:12.530Z,100296.70
2019-02-26T00:11:42.744Z,100300.57
2019-02-26T00:14:15.535Z,100300.74
2019-02-26T00:16:46.673Z,100297.05
2019-02-26T00:19:16.771Z,100293.20
2019-02-26T00:21:47.951Z,100288.48
2019-02-26T00:24:18.926Z,100285.95
2019-02-26T00:26:49.136Z,100280.41
2019-02-26T00:29:21.033Z,100279.23
2019-02-26T00:31:52.922Z,100279.10
2019-02-26T00:34:24.027Z,100283.44
2019-02-26T00:36:54.355Z,100278.75
2019-02-26T00:39:25.107Z,100278.58
2019-02-26T00:41:58.133Z,100278.19
2019-02-26T00:44:29.877Z,100271.52
2019-02-26T00:47:02.705Z,100262.06
2019-02-26T00:49:32.311Z,100262.11
2019-02-26T00:52:04.048Z,100254.22
2019-02-26T00:54:36.433Z,100253.39
2019-02-26T00:57:08.599Z,100253.91
2019-02-26T00:59:38.871Z,100255.44
2019-02-26T01:02:10.327Z,100244.39
2019-02-26T01:04:41.488Z,100244.91
2019-02-26T01:07:12.514Z,100245.55
2019-02-26T01:09:42.724Z,100244.68
2019-02-26T01:12:13.711Z,100233.63
2019-02-26T01:14:46.385Z,100235.49
2019-02-26T01:17:18.645Z,100231.81
2019-02-26T01:19:48.682Z,100236.19
2019-02-26T01:22:18.950Z,100231.52
2019-02-26T01:24:49.777Z,100222.63
2019-02-26T01:27:21.100Z,100224.87
2019-02-26T01:29:53.470Z,100223.67
2019-02-26T01:32:24.914Z,100221.53
2019-02-26T01:34:55.178Z,100219.19
2019-02-26T01:37:27.691Z,100211.30
2019-02-26T01:39:57.379Z,100211.95
2019-02-26T01:42:29.426Z,100207.45
2019-02-26T01:44:59.542Z,100201.90
2019-02-26T01:47:32.107Z,100200.21
2019-02-26T01:50:04.082Z,100197.22
2019-02-26T01:52:34.223Z,100195.88
2019-02-26T01:55:05.946Z,100194.88
2019-02-26T01:57:36.199Z,100195.70
2019-02-26T02:00:19.407Z,100196.19
2019-02-26T02:02:49.682Z,100201.56
2019-02-26T02:05:21.592Z,100196.01
2019-02-26T02:07:53.547Z,100203.07
2019-02-26T02:10:23.665Z,100190.94
2019-02-26T02:12:57.345Z,100183.02
2019-02-26T02:15:25.842Z,100190.56
2019-02-26T02:17:57.706Z,100186.70
2019-02-26T02:20:28.019Z,100175.83
2019-02-26T02:23:00.473Z,100184.40
2019-02-26T02:25:33.209Z,100183.70
2019-02-26T02:28:04.417Z,100174.95
2019-02-26T02:30:35.416Z,100173.09
2019-02-26T02:33:06.140Z,100168.58
2019-02-26T02:35:36.338Z,100166.55
2019-02-26T02:38:06.755Z,100168.58
2019-02-26T02:40:39.881Z,100156.66
2019-02-26T02:43:10.024Z,100159.66
2019-02-26T02:45:40.814Z,100151.25
2019-02-26T02:48:11.769Z,100145.05
2019-02-26T02:50:43.046Z,100147.21
2019-02-26T02:53:13.360Z,100148.85
2019-02-26T02:55:46.402Z,100145.30
2019-02-26T02:58:18.180Z,100151.83
2019-02-26T03:00:49.313Z,100149.20
2019-02-26T03:03:19.489Z,100152.23
2019-02-26T03:05:49.706Z,100149.03
2019-02-26T03:08:22.323Z,100151.58
2019-02-26T03:10:51.884Z,100143.00
2019-02-26T03:13:24.879Z,100146.91
2019-02-26T03:15:56.188Z,100139.85
2019-02-26T03:18:25.852Z,100135.64
2019-02-26T03:20:56.717Z,100138.16
2019-02-26T03:23:28.028Z,100132.97
2019-02-26T03:25:58.224Z,100135.83
2019-02-26T03:28:28.545Z,100132.30
2019-02-26T03:30:58.767Z,100130.32
2019-02-26T03:33:29.872Z,100124.03
2019-02-26T03:36:00.095Z,100125.08
2019-02-26T03:38:30.456Z,100131.20
2019-02-26T03:41:03.310Z,100128.28
2019-02-26T03:43:34.192Z,100127.34
2019-02-26T03:46:04.538Z,100126.17
2019-02-26T03:48:34.717Z,100128.52
2019-02-26T03:51:04.935Z,100126.56
2019-02-26T03:53:36.322Z,100121.02
2019-02-26T03:56:08.025Z,100124.41
2019-02-26T03:58:39.070Z,100124.27
2019-02-26T04:01:10.935Z,100122.75
2019-02-26T04:03:42.521Z,100125.13
2019-02-26T04:06:12.861Z,100116.59
2019-02-26T04:08:46.166Z,100119.11
2019-02-26T04:11:16.822Z,100110.41
2019-02-26T04:13:49.482Z,100109.41
2019-02-26T04:16:18.918Z,100108.61
2019-02-26T04:18:51.978Z,100098.67
2019-02-26T04:21:21.314Z,100106.72
2019-02-26T04:23:51.567Z,100103.66
2019-02-26T04:26:29.133Z,100101.66
2019-02-26T04:29:08.750Z,100103.13
2019-02-26T04:31:50.248Z,100093.91
2019-02-26T04:34:26.550Z,100097.63
2019-02-26T04:37:24.799Z,100101.48
2019-02-26T04:40:19.229Z,100102.27
2019-02-26T04:43:10.336Z,100098.24
2019-02-26T04:45:44.107Z,100097.25
2019-02-26T04:48:19.519Z,100097.94
2019-02-26T04:50:49.438Z,100096.21
2019-02-26T04:53:19.668Z,100087.98
2019-02-26T04:55:49.949Z,100090.95
2019-02-26T04:58:22.258Z,100085.63
2019-02-26T05:00:52.137Z,100087.75
2019-02-26T05:03:22.352Z,100087.94
2019-02-26T05:05:55.941Z,100078.27
2019-02-26T05:08:24.554Z,100097.20
2019-02-26T05:10:57.287Z,100090.88
2019-02-26T05:13:28.926Z,100084.48
2019-02-26T05:15:58.692Z,100080.44
2019-02-26T05:18:31.631Z,100080.52
2019-02-26T05:21:02.752Z,100078.92
2019-02-26T05:23:33.660Z,100078.09
2019-02-26T05:26:05.609Z,100077.02
2019-02-26T05:28:37.887Z,100079.74
2019-02-26T05:31:09.077Z,100084.47
2019-02-26T05:33:39.590Z,100097.97
2019-02-26T05:36:12.125Z,100093.77
2019-02-26T05:38:42.538Z,100083.53
2019-02-26T05:41:12.918Z,100087.30
2019-02-26T05:43:43.171Z,100083.61
2019-02-26T05:46:15.673Z,100073.86
2019-02-26T05:48:46.190Z,100070.56
2019-02-26T05:51:17.290Z,100064.93
2019-02-26T05:53:47.500Z,100065.43
2019-02-26T05:56:20.192Z,100060.92
2019-02-26T05:58:49.703Z,100072.83
2019-02-26T06:01:21.827Z,100061.89
2019-02-26T06:03:51.990Z,100059.41
2019-02-26T06:06:22.289Z,100059.02
2019-02-26T06:08:55.246Z,100064.16
2019-02-26T06:11:28.313Z,100061.63
2019-02-26T06:13:58.432Z,100055.91
2019-02-26T06:16:28.953Z,100057.48
2019-02-26T06:19:00.252Z,100052.30
2019-02-26T06:21:30.489Z,100046.14
2019-02-26T06:24:00.611Z,100046.77
2019-02-26T06:26:35.095Z,100049.78
2019-02-26T06:29:02.780Z,100053.31
2019-02-26T06:31:33.050Z,100053.41
2019-02-26T06:34:05.645Z,100053.13
2019-02-26T06:36:36.132Z,100057.18
2019-02-26T06:39:06.375Z,100052.96
2019-02-26T06:41:39.506Z,100042.64
2019-02-26T06:44:08.686Z,100040.28
2019-02-26T06:46:38.960Z,100029.16
2019-02-26T06:49:09.192Z,100038.91
2019-02-26T06:51:39.487Z,100020.95
2019-02-26T06:54:09.683Z,100020.41
2019-02-26T06:56:43.728Z,100021.45
2019-02-26T06:59:12.335Z,100017.94
2019-02-26T07:01:42.739Z,100010.17
2019-02-26T07:04:13.082Z,100005.41
2019-02-26T07:06:43.419Z,100004.02
2019-02-26T07:09:15.799Z,99996.55
2019-02-26T07:11:45.661Z,100003.19
2019-02-26T07:14:15.882Z,99987.16
2019-02-26T07:16:46.158Z,99978.37
2019-02-26T07:19:16.743Z,99979.65
2019-02-26T07:21:48.132Z,99981.06
2019-02-26T07:24:20.685Z,99984.46
2019-02-26T07:26:50.715Z,99986.23
2019-02-26T07:29:22.396Z,99988.69
2019-02-26T07:31:54.101Z,99989.53
2019-02-26T07:34:25.071Z,99995.11
2019-02-26T07:36:57.258Z,99985.48
2019-02-26T07:39:27.379Z,99980.37
2019-02-26T07:41:57.659Z,99982.53
2019-02-26T07:44:28.451Z,99977.29
2019-02-26T07:47:00.629Z,99970.70
2019-02-26T07:49:30.447Z,99972.28
2019-02-26T07:52:03.141Z,99962.27
2019-02-26T07:54:32.411Z,99962.03
2019-02-26T07:57:02.823Z,99961.78
2019-02-26T07:59:36.484Z,99951.31
2019-02-26T08:02:06.349Z,99957.22
2019-02-26T08:04:38.768Z,99948.69
2019-02-26T08:07:08.789Z,99945.63
2019-02-26T08:09:39.029Z,99939.42
2019-02-26T08:12:11.268Z,99942.91
2019-02-26T08:14:42.863Z,99930.77
2019-02-26T08:17:13.123Z,99932.20
2019-02-26T08:19:46.371Z,99927.95
2019-02-26T08:22:15.093Z,99922.61
2019-02-26T08:24:46.081Z,99924.28
2019-02-26T08:27:17.079Z,99920.77
2019-02-26T08:29:49.283Z,99918.83
2019-02-26T08:32:21.005Z,99919.95
2019-02-26T08:34:51.026Z,99914.20
2019-02-26T08:37:22.253Z,99907.73
2019-02-26T08:39:52.457Z,99901.77
2019-02-26T08:42:22.721Z,99894.51
2019-02-26T08:44:54.192Z,99888.54
2019-02-26T08:47:24.639Z,99894.95
2019-02-26T08:49:54.778Z,99892.00
2019-02-26T08:52:29.312Z,99892.31
2019-02-26T08:54:59.302Z,99891.09
2019-02-26T08:57:29.557Z,99893.27
2019-02-26T08:59:59.758Z,99894.98
2019-02-26T09:02:29.906Z,99887.50
2019-02-26T09:05:01.565Z,99882.30
2019-02-26T09:07:31.907Z,99877.89
2019-02-26T09:10:02.065Z,99872.33
2019-02-26T09:12:32.202Z,99865.16
2019-02-26T09:15:02.519Z,99873.34
2019-02-26T09:17:36.921Z,99875.07
2019-02-26T09:20:09.763Z,99864.77
2019-02-26T09:22:40.599Z,99863.00
2019-02-26T09:25:11.870Z,99862.61
2019-02-26T09:27:42.930Z,99856.70
2019-02-26T09:30:20.221Z,99857.13
2019-02-26T09:32:52.421Z,99857.30
2019-02-26T09:35:26.918Z,99859.33
2019-02-26T09:37:57.888Z,99854.72
2019-02-26T09:40:29.067Z,99852.94
2019-02-26T09:43:00.139Z,99853.56
2019-02-26T09:45:30.453Z,99846.51
2019-02-26T09:48:01.258Z,99847.25
2019-02-26T09:50:31.597Z,99844.76
2019-02-26T09:53:01.871Z,99841.89
2019-02-26T09:55:32.179Z,99835.91
2019-02-26T09:58:02.669Z,99838.83
2019-02-26T10:00:33.016Z,99836.75
2019-02-26T10:03:05.270Z,99829.07
2019-02-26T10:05:35.525Z,99829.44
2019-02-26T10:08:19.778Z,99832.66
2019-02-26T10:10:51.844Z,99831.28
2019-02-26T10:13:23.271Z,99826.47
2019-02-26T10:15:53.746Z,99830.81
2019-02-26T10:18:25.643Z,99821.34
2019-02-26T10:20:57.554Z,99808.20
2019-02-26T10:23:33.022Z,99814.28
2019-02-26T10:26:05.202Z,99811.72
2019-02-26T10:28:39.343Z,99818.28
2019-02-26T10:31:09.630Z,99817.20
2019-02-26T10:33:41.185Z,99812.42
2019-02-26T10:36:12.953Z,99814.77
2019-02-26T10:38:43.831Z,99806.89
2019-02-26T10:41:14.781Z,99803.70
2019-02-26T10:43:45.170Z,99800.42
2019-02-26T10:46:16.901Z,99792.16
2019-02-26T10:48:48.073Z,99796.33
2019-02-26T10:51:26.112Z,99793.00
2019-02-26T10:53:51.849Z,99797.61
2019-02-26T10:56:28.017Z,99789.79
2019-02-26T10:59:03.565Z,99786.24
2019-02-26T11:01:33.508Z,99789.18
2019-02-26T11:04:08.355Z,99785.66
2019-02-26T11:06:41.594Z,99789.96
2019-02-26T11:09:11.114Z,99783.36
2019-02-26T11:11:42.359Z,99776.95
2019-02-26T11:14:15.981Z,99776.69
2019-02-26T11:16:47.231Z,99780.53
2019-02-26T11:19:17.535Z,99773.52
2019-02-26T11:21:50.078Z,99778.11
2019-02-26T11:24:23.441Z,99776.36
2019-02-26T11:26:51.947Z,99774.12
2019-02-26T11:29:22.288Z,99776.39
2019-02-26T11:31:52.575Z,99775.83
2019-02-26T11:34:25.471Z,99773.44
2019-02-26T11:36:57.950Z,99769.21
2019-02-26T11:39:28.266Z,99762.70
2019-02-26T11:42:00.727Z,99753.62
2019-02-26T11:44:30.514Z,99750.58
2019-02-26T11:47:00.714Z,99756.03
2019-02-26T11:49:31.324Z,99755.44
2019-02-26T11:52:04.402Z,99757.09
2019-02-26T11:54:35.083Z,99752.28
2019-02-26T11:57:11.215Z,99756.13
2019-02-26T11:59:42.791Z,99754.89
2019-02-26T12:02:14.240Z,99750.08
2019-02-26T12:04:44.415Z,99747.80
2019-02-26T12:07:14.609Z,99747.95
2019-02-26T12:09:44.909Z,99754.52
2019-02-26T12:12:15.141Z,99742.46
2019-02-26T12:14:48.298Z,99738.97
2019-02-26T12:17:17.611Z,99744.97
2019-02-26T12:19:48.641Z,99738.92
2019-02-26T12:22:20.421Z,99738.42
2019-02-26T12:24:55.768Z,99736.05
2019-02-26T12:27:23.776Z,99735.78
2019-02-26T12:29:59.550Z,99735.09
2019-02-26T12:32:29.910Z,99737.45
2019-02-26T12:35:00.290Z,99730.32
2019-02-26T12:37:30.616Z,99730.66
2019-02-26T12:40:02.069Z,99729.47
2019-02-26T12:42:32.283Z,99728.31
2019-02-26T12:45:04.861Z,99730.22
2019-02-26T12:47:39.804Z,99731.94
2019-02-26T12:50:12.357Z,99729.73
2019-02-26T12:52:47.484Z,99735.30
2019-02-26T12:55:17.756Z,99731.30
2019-02-26T12:57:49.780Z,99733.02
2019-02-26T13:00:23.602Z,99728.16
2019-02-26T13:02:53.871Z,99723.50
2019-02-26T13:05:24.172Z,99721.30
2019-02-26T13:07:55.368Z,99722.05
2019-02-26T13:10:26.537Z,99719.02
2019-02-26T13:13:00.127Z,99721.34
2019-02-26T13:15:30.250Z,99716.78
2019-02-26T13:18:01.457Z,99726.19
2019-02-26T13:20:34.416Z,99724.64
2019-02-26T13:23:16.963Z,99723.31
2019-02-26T13:25:37.306Z,99722.27
2019-02-26T13:28:07.597Z,99716.07
2019-02-26T13:30:37.944Z,99719.38
2019-02-26T13:33:12.875Z,99719.95
2019-02-26T13:35:42.834Z,99718.53
2019-02-26T13:38:13.619Z,99720.53
2019-02-26T13:40:45.495Z,99717.75
2019-02-26T13:43:15.727Z,99717.94
2019-02-26T13:45:47.710Z,99722.59
2019-02-26T13:48:17.966Z,99721.45
2019-02-26T13:50:50.656Z,99718.95
2019-02-26T13:53:20.920Z,99718.36
2019-02-26T13:55:53.139Z,99720.48
2019-02-26T13:58:23.403Z,99715.06
2019-02-26T14:00:57.333Z,99719.33
2019-02-26T14:03:36.947Z,99718.05
2019-02-26T14:06:13.998Z,99722.80
2019-02-26T14:08:44.325Z,99725.88
2019-02-26T14:11:14.824Z,99721.33
2019-02-26T14:13:45.183Z,99728.16
2019-02-26T14:16:18.732Z,99726.97
2019-02-26T14:18:49.087Z,99731.47
2019-02-26T14:21:19.596Z,99729.77
2019-02-26T14:23:50.207Z,99725.32
2019-02-26T14:26:21.083Z,99726.28
2019-02-26T14:28:52.893Z,99724.50
2019-02-26T14:31:23.732Z,99730.62
2019-02-26T14:33:55.859Z,99736.23
2019-02-26T14:36:31.527Z,99738.88
2019-02-26T14:39:03.820Z,99740.89
2019-02-26T14:41:35.601Z,99740.59
2019-02-26T14:44:12.448Z,99732.20
2019-02-26T14:47:09.349Z,99733.31
2019-02-26T14:49:53.759Z,99741.87
2019-02-26T14:52:33.551Z,99738.47
2019-02-26T14:55:11.121Z,99738.47
2019-02-26T14:58:02.520Z,99736.79
2019-02-26T15:00:45.357Z,99734.33
2019-02-26T15:03:33.906Z,99739.21
2019-02-26T15:06:23.489Z,99747.35
2019-02-26T15:11:53.506Z,99746.80
2019-02-26T15:14:23.952Z,99739.37
2019-02-26T15:16:54.263Z,99737.68
2019-02-26T15:19:25.013Z,99741.45
2019-02-26T15:21:57.216Z,99734.95
2019-02-26T15:24:27.727Z,99750.11
2019-02-26T15:27:16.301Z,99746.87
2019-02-26T15:29:50.550Z,99752.02
2019-02-26T15:32:20.828Z,99755.94
2019-02-26T15:34:51.093Z,99755.33
2019-02-26T15:37:21.348Z,99752.87
2019-02-26T15:39:51.615Z,99759.63
2019-02-26T15:42:22.880Z,99764.81
2019-02-26T15:44:53.126Z,99763.70
2019-02-26T15:47:23.576Z,99766.72
2019-02-26T15:49:53.787Z,99773.77
2019-02-26T15:52:24.053Z,99776.25
2019-02-26T15:54:57.646Z,99776.47
2019-02-26T15:57:28.570Z,99775.20
2019-02-26T16:00:00.407Z,99786.66
2019-02-26T16:02:30.908Z,99788.34
2019-02-26T16:05:02.809Z,99791.07
2019-02-26T16:07:33.279Z,99793.48
2019-02-26T16:10:16.413Z,99798.24
2019-02-26T16:15:38.585Z,99796.88
2019-02-26T16:18:18.040Z,99799.66
2019-02-26T16:20:55.835Z,99797.16
2019-02-26T16:23:37.765Z,99805.17
2019-02-26T16:26:09.861Z,99805.31
2019-02-26T16:28:40.150Z,99808.95
2019-02-26T16:31:10.411Z,99811.03
2019-02-26T16:33:40.713Z,99820.80
2019-02-26T16:36:12.963Z,99819.36
2019-02-26T16:38:42.968Z,99815.93
2019-02-26T16:41:13.374Z,99818.13
2019-02-26T16:43:43.940Z,99821.34
2019-02-26T16:46:14.493Z,99826.16
2019-02-26T16:48:45.374Z,99826.68
2019-02-26T16:51:18.551Z,99831.54
2019-02-26T16:53:47.647Z,99821.98
2019-02-26T16:56:21.634Z,99830.19
2019-02-26T16:58:49.807Z,99828.58
2019-02-26T17:01:21.749Z,99830.84
2019-02-26T17:03:52.020Z,99832.91
2019-02-26T17:06:22.244Z,99834.52
2019-02-26T17:08:52.503Z,99828.34
2019-02-26T17:11:22.861Z,99833.23
2019-02-26T17:13:53.050Z,99830.05
2019-02-26T17:16:23.248Z,99832.47
2019-02-26T17:18:53.482Z,99834.09
2019-02-26T17:21:23.728Z,99835.45
2019-02-26T17:23:54.014Z,99842.09
2019-02-26T17:26:24.225Z,99836.13
2019-02-26T17:28:54.499Z,99840.80
2019-02-26T17:31:24.693Z,99842.70
2019-02-26T17:33:54.925Z,99843.42
2019-02-26T17:36:25.147Z,99843.83
2019-02-26T17:38:55.372Z,99843.06
2019-02-26T17:41:25.553Z,99848.71
2019-02-26T17:43:58.770Z,99846.09
2019-02-26T17:46:28.680Z,99842.85
2019-02-26T17:49:02.642Z,99848.50
2019-02-26T17:51:31.284Z,99852.71
2019-02-26T17:54:01.971Z,99851.83
2019-02-26T17:56:33.499Z,99847.37
2019-02-26T17:59:03.822Z,99854.45
2019-02-26T18:01:34.032Z,99854.87
2019-02-26T18:04:04.296Z,99857.05
2019-02-26T18:06:34.497Z,99859.61
2019-02-26T18:09:05.236Z,99856.08
2019-02-26T18:11:36.563Z,99861.09
2019-02-26T18:14:06.928Z,99862.59
2019-02-26T18:16:37.141Z,99857.32
2019-02-26T18:19:09.744Z,99866.44
2019-02-26T18:21:43.399Z,99861.78
2019-02-26T18:24:11.260Z,99870.11
2019-02-26T18:26:41.491Z,99865.38
2019-02-26T18:29:11.733Z,99875.59
2019-02-26T18:31:41.934Z,99879.27
2019-02-26T18:34:14.037Z,99880.95
2019-02-26T18:36:45.475Z,99880.05
2019-02-26T18:39:16.144Z,99877.00
2019-02-26T18:41:50.710Z,99882.68
2019-02-26T18:44:20.527Z,99882.13
2019-02-26T18:46:51.120Z,99886.52
2019-02-26T18:49:22.399Z,99894.66
2019-02-26T18:51:52.644Z,99887.23
2019-02-26T18:54:22.887Z,99896.50
2019-02-26T18:56:53.937Z,99890.25
2019-02-26T18:59:24.263Z,99893.81
2019-02-26T19:01:54.534Z,99892.85
2019-02-26T19:04:24.808Z,99891.95
2019-02-26T19:06:55.015Z,99887.38
2019-02-26T19:09:25.316Z,99890.51
2019-02-26T19:11:57.715Z,99889.39
2019-02-26T19:14:27.387Z,99891.59
2019-02-26T19:16:57.603Z,99899.21
2019-02-26T19:19:27.750Z,99896.73
2019-02-26T19:21:58.999Z,99904.48
2019-02-26T19:24:29.395Z,99910.95
2019-02-26T19:26:59.601Z,99906.03
2019-02-26T19:29:31.548Z,99904.40
2019-02-26T19:32:01.786Z,99906.21
2019-02-26T19:34:32.029Z,99911.40
2019-02-26T19:37:02.239Z,99905.15
2019-02-26T19:39:33.751Z,99903.96
2019-02-26T19:42:04.487Z,99904.04
2019-02-26T19:44:36.447Z,99902.64
2019-02-26T19:47:06.808Z,99903.98
2019-02-26T19:49:39.686Z,99901.53
2019-02-26T19:52:09.381Z,99904.04
2019-02-26T19:54:41.571Z,99904.56
2019-02-26T19:57:12.322Z,99910.83
2019-02-26T19:59:46.784Z,99909.35
2019-02-26T20:02:14.724Z,99911.81
2019-02-26T20:04:44.991Z,99914.88
2019-02-26T20:07:15.193Z,99923.84
2019-02-26T20:09:45.364Z,99925.42
2019-02-26T20:12:15.592Z,99922.95
2019-02-26T20:14:48.551Z,99927.00
2019-02-26T20:17:17.720Z,99930.72
2019-02-26T20:19:48.038Z,99931.27
2019-02-26T20:22:18.448Z,99925.97
2019-02-26T20:24:48.719Z,99921.52
2019-02-26T20:27:21.647Z,99917.30
2019-02-26T20:29:50.887Z,99920.08
2019-02-26T20:32:21.069Z,99924.03
2019-02-26T20:34:51.328Z,99922.84
2019-02-26T20:37:22.003Z,99925.53
2019-02-26T20:39:53.415Z,99920.89
2019-02-26T20:42:23.610Z,99925.17
2019-02-26T20:44:58.990Z,99925.28
2019-02-26T20:47:31.535Z,99920.89
2019-02-26T20:50:01.047Z,99919.17
2019-02-26T20:52:32.952Z,99922.73
2019-02-26T20:55:03.020Z,99924.56
2019-02-26T20:57:34.905Z,99928.48
2019-02-26T21:00:08.207Z,99923.11
2019-02-26T21:02:38.394Z,99927.21
2019-02-26T21:05:09.641Z,99930.31
2019-02-26T21:07:39.774Z,99927.70
2019-02-26T21:10:15.031Z,99927.61
2019-02-26T21:12:43.855Z,99934.38
2019-02-26T21:15:24.803Z,99927.39
2019-02-26T21:17:57.738Z,99923.94
2019-02-26T21:20:26.632Z,99930.77
2019-02-26T21:22:56.810Z,99934.80
2019-02-26T21:25:26.985Z,99930.30
2019-02-26T21:28:00.785Z,99935.20
2019-02-26T21:30:28.975Z,99923.81
2019-02-26T21:32:59.183Z,99931.63
2019-02-26T21:35:29.439Z,99940.37
2019-02-26T21:37:59.636Z,99932.17
2019-02-26T21:40:29.767Z,99929.44
2019-02-26T21:43:02.407Z,99940.81
2019-02-26T21:45:32.566Z,99941.46
2019-02-26T21:48:03.316Z,99944.12
2019-02-26T21:50:33.779Z,99941.73
2019-02-26T21:53:03.963Z,99937.94
2019-02-26T21:55:43.978Z,99945.21
2019-02-26T21:58:05.894Z,99940.82
2019-02-26T22:00:36.745Z,99948.31
2019-02-26T22:03:07.832Z,99946.32
2019-02-26T22:05:38.435Z,99944.89
2019-02-26T22:08:08.563Z,99945.05
2019-02-26T22:10:40.224Z,99939.16
2019-02-26T22:13:10.540Z,99938.71
2019-02-26T22:15:42.040Z,99943.22
2019-02-26T22:18:12.470Z,99940.99
2019-02-26T22:20:42.632Z,99940.81
2019-02-26T22:23:14.833Z,99944.84
2019-02-26T22:25:44.557Z,99947.81
2019-02-26T22:28:14.658Z,99952.20
2019-02-26T22:30:44.822Z,99952.37
2019-02-26T22:33:14.933Z,99955.70
2019-02-26T22:35:45.080Z,99948.27
2019-02-26T22:38:16.006Z,99948.86
2019-02-26T22:40:46.199Z,99962.59
2019-02-26T22:43:16.290Z,99960.48
2019-02-26T22:45:47.511Z,99959.86
2019-02-26T22:48:17.805Z,99968.53
2019-02-26T22:50:48.247Z,99959.79
2019-02-26T22:53:18.533Z,99966.08
2019-02-26T22:55:49.815Z,99972.33
2019-02-26T22:58:20.652Z,99956.84
2019-02-26T23:00:58.439Z,99959.82
2019-02-26T23:03:29.467Z,99962.98
2019-02-26T23:05:59.818Z,99962.10
2019-02-26T23:08:30.212Z,99970.42
2019-02-26T23:11:00.680Z,99969.70
2019-02-26T23:13:31.890Z,99968.55
2019-02-26T23:16:03.047Z,99968.72
2019-02-26T23:18:33.335Z,99967.02
2019-02-26T23:21:03.701Z,99976.65
2019-02-26T23:23:34.243Z,99972.06
2019-02-26T23:26:08.630Z,99975.97
2019-02-26T23:28:37.078Z,99976.44
2019-02-26T23:31:07.925Z,99978.05
2019-02-26T23:33:40.780Z,99977.93
2019-02-26T23:36:10.870Z,99977.89
2019-02-26T23:38:43.813Z,99979.23
2019-02-26T23:41:13.212Z,99985.93
2019-02-26T23:43:45.390Z,99979.88
2019-02-26T23:46:21.401Z,99983.16
2019-02-26T23:48:51.689Z,99982.02
2019-02-26T23:51:22.134Z,99979.64
2019-02-26T23:53:52.445Z,99984.89
2019-02-26T23:56:22.802Z,99983.02
2019-02-26T23:58:53.098Z,99983.02
